sensor_id;sensor_type;location;lat;lon;timestamp;temperature;humidity
13256;DHT22;37913;48.370;10.930;2022-12-29T00:00:55;5.60;1.00
13256;DHT22;37913;48.370;10.930;2022-12-29T00:03:22;5.60;1.00
13256;DHT22;37913;48.370;10.930;2022-12-29T00:05:56;5.60;1.00
13256;DHT22;37913;48.370;10.930;2022-12-29T00:08:23;5.50;1.00
13256;DHT22;37913;48.370;10.930;2022-12-29T00:11:05;5.60;1.00
13256;DHT22;37913;48.370;10.930;2022-12-29T00:13:32;5.70;1.00
13256;DHT22;37913;48.370;10.930;2022-12-29T00:16:16;5.80;1.00
13256;DHT22;37913;48.370;10.930;2022-12-29T00:18:43;5.70;1.00
13256;DHT22;37913;48.370;10.930;2022-12-29T00:21:13;5.60;1.00
13256;DHT22;37913;48.370;10.930;2022-12-29T00:23:58;5.60;1.00
13256;DHT22;37913;48.370;10.930;2022-12-29T00:26:55;5.60;1.00
13256;DHT22;37913;48.370;10.930;2022-12-29T00:29:46;5.60;1.00
13256;DHT22;37913;48.370;10.930;2022-12-29T00:32:30;5.60;1.00
13256;DHT22;37913;48.370;10.930;2022-12-29T00:35:23;5.60;1.00
13256;DHT22;37913;48.370;10.930;2022-12-29T00:37:52;5.60;1.00
13256;DHT22;37913;48.370;10.930;2022-12-29T00:40:38;5.60;1.00
13256;DHT22;37913;48.370;10.930;2022-12-29T00:43:22;5.50;1.00
13256;DHT22;37913;48.370;10.930;2022-12-29T00:46:06;5.40;1.00
13256;DHT22;37913;48.370;10.930;2022-12-29T00:48:33;5.30;1.00
13256;DHT22;37913;48.370;10.930;2022-12-29T00:51:23;5.30;1.00
13256;DHT22;37913;48.370;10.930;2022-12-29T00:53:51;5.30;1.00
13256;DHT22;37913;48.370;10.930;2022-12-29T00:56:18;5.10;1.00
13256;DHT22;37913;48.370;10.930;2022-12-29T00:58:45;5.10;1.00
13256;DHT22;37913;48.370;10.930;2022-12-29T01:01:12;5.20;1.00
13256;DHT22;37913;48.370;10.930;2022-12-29T01:03:39;5.00;1.00
13256;DHT22;37913;48.370;10.930;2022-12-29T01:06:08;5.10;1.00
13256;DHT22;37913;48.370;10.930;2022-12-29T01:08:37;5.00;1.00
13256;DHT22;37913;48.370;10.930;2022-12-29T01:11:07;5.30;1.00
13256;DHT22;37913;48.370;10.930;2022-12-29T01:13:34;5.10;1.00
13256;DHT22;37913;48.370;10.930;2022-12-29T01:16:01;5.30;1.00
13256;DHT22;37913;48.370;10.930;2022-12-29T01:18:28;5.10;1.00
13256;DHT22;37913;48.370;10.930;2022-12-29T01:20:59;5.10;1.00
13256;DHT22;37913;48.370;10.930;2022-12-29T01:23:26;5.10;1.00
13256;DHT22;37913;48.370;10.930;2022-12-29T01:25:54;5.10;1.00
13256;DHT22;37913;48.370;10.930;2022-12-29T01:28:22;5.10;1.00
13256;DHT22;37913;48.370;10.930;2022-12-29T01:30:49;5.10;1.00
13256;DHT22;37913;48.370;10.930;2022-12-29T01:33:16;5.20;1.00
13256;DHT22;37913;48.370;10.930;2022-12-29T01:35:43;5.10;1.00
13256;DHT22;37913;48.370;10.930;2022-12-29T01:38:10;5.10;1.00
13256;DHT22;37913;48.370;10.930;2022-12-29T01:40:43;5.20;1.00
13256;DHT22;37913;48.370;10.930;2022-12-29T01:43:12;5.20;1.00
13256;DHT22;37913;48.370;10.930;2022-12-29T01:45:44;5.20;1.00
13256;DHT22;37913;48.370;10.930;2022-12-29T01:48:13;5.30;1.00
13256;DHT22;37913;48.370;10.930;2022-12-29T01:50:42;5.40;1.00
13256;DHT22;37913;48.370;10.930;2022-12-29T01:53:13;5.40;1.00
13256;DHT22;37913;48.370;10.930;2022-12-29T01:55:45;5.40;1.00
13256;DHT22;37913;48.370;10.930;2022-12-29T01:58:14;5.50;1.00
13256;DHT22;37913;48.370;10.930;2022-12-29T02:00:44;5.70;1.00
13256;DHT22;37913;48.370;10.930;2022-12-29T02:03:11;5.50;1.00
13256;DHT22;37913;48.370;10.930;2022-12-29T02:05:43;5.50;1.00
13256;DHT22;37913;48.370;10.930;2022-12-29T02:08:11;5.40;1.00
13256;DHT22;37913;48.370;10.930;2022-12-29T02:10:40;5.50;1.00
13256;DHT22;37913;48.370;10.930;2022-12-29T02:13:08;5.50;1.00
13256;DHT22;37913;48.370;10.930;2022-12-29T02:15:45;5.50;1.00
13256;DHT22;37913;48.370;10.930;2022-12-29T02:18:24;5.60;1.00
13256;DHT22;37913;48.370;10.930;2022-12-29T02:30:49;5.70;1.00
13256;DHT22;37913;48.370;10.930;2022-12-29T02:33:37;5.80;1.00
13256;DHT22;37913;48.370;10.930;2022-12-29T02:36:12;5.80;1.00
13256;DHT22;37913;48.370;10.930;2022-12-29T02:38:52;5.70;1.00
13256;DHT22;37913;48.370;10.930;2022-12-29T02:41:31;6.60;1.00
13256;DHT22;37913;48.370;10.930;2022-12-29T02:44:04;5.80;1.00
13256;DHT22;37913;48.370;10.930;2022-12-29T02:46:41;5.90;1.00
13256;DHT22;37913;48.370;10.930;2022-12-29T02:49:13;6.00;1.00
13256;DHT22;37913;48.370;10.930;2022-12-29T02:51:46;6.00;1.00
13256;DHT22;37913;48.370;10.930;2022-12-29T02:54:17;6.00;1.00
13256;DHT22;37913;48.370;10.930;2022-12-29T02:57:01;6.20;1.00
13256;DHT22;37913;48.370;10.930;2022-12-29T02:59:29;6.00;1.00
13256;DHT22;37913;48.370;10.930;2022-12-29T03:05:10;5.80;1.00
13256;DHT22;37913;48.370;10.930;2022-12-29T03:07:47;5.80;1.00
13256;DHT22;37913;48.370;10.930;2022-12-29T03:10:25;5.80;1.00
13256;DHT22;37913;48.370;10.930;2022-12-29T03:13:03;5.80;1.00
13256;DHT22;37913;48.370;10.930;2022-12-29T03:15:53;5.80;1.00
13256;DHT22;37913;48.370;10.930;2022-12-29T03:18:39;5.80;1.00
13256;DHT22;37913;48.370;10.930;2022-12-29T03:21:12;5.80;1.00
13256;DHT22;37913;48.370;10.930;2022-12-29T03:23:44;5.80;1.00
13256;DHT22;37913;48.370;10.930;2022-12-29T03:26:14;5.70;1.00
13256;DHT22;37913;48.370;10.930;2022-12-29T03:28:47;5.70;1.00
13256;DHT22;37913;48.370;10.930;2022-12-29T03:31:16;5.80;1.00
13256;DHT22;37913;48.370;10.930;2022-12-29T03:33:46;5.80;1.00
13256;DHT22;37913;48.370;10.930;2022-12-29T03:36:17;5.80;1.00
13256;DHT22;37913;48.370;10.930;2022-12-29T03:38:48;5.90;1.00
13256;DHT22;37913;48.370;10.930;2022-12-29T03:41:22;6.00;1.00
13256;DHT22;37913;48.370;10.930;2022-12-29T03:43:50;6.10;1.00
13256;DHT22;37913;48.370;10.930;2022-12-29T03:46:17;6.20;1.00
13256;DHT22;37913;48.370;10.930;2022-12-29T03:48:45;6.20;1.00
13256;DHT22;37913;48.370;10.930;2022-12-29T03:51:12;6.30;1.00
13256;DHT22;37913;48.370;10.930;2022-12-29T03:53:39;6.30;1.00
13256;DHT22;37913;48.370;10.930;2022-12-29T03:56:06;6.30;1.00
13256;DHT22;37913;48.370;10.930;2022-12-29T03:58:33;6.30;1.00
13256;DHT22;37913;48.370;10.930;2022-12-29T04:01:00;6.30;1.00
13256;DHT22;37913;48.370;10.930;2022-12-29T04:03:27;6.50;1.00
13256;DHT22;37913;48.370;10.930;2022-12-29T04:05:55;6.40;1.00
13256;DHT22;37913;48.370;10.930;2022-12-29T04:08:22;6.40;1.00
13256;DHT22;37913;48.370;10.930;2022-12-29T04:10:48;6.50;1.00
13256;DHT22;37913;48.370;10.930;2022-12-29T04:13:15;6.50;1.00
13256;DHT22;37913;48.370;10.930;2022-12-29T04:15:43;6.50;1.00
13256;DHT22;37913;48.370;10.930;2022-12-29T04:18:10;6.60;1.00
13256;DHT22;37913;48.370;10.930;2022-12-29T04:20:37;6.60;1.00
13256;DHT22;37913;48.370;10.930;2022-12-29T04:23:23;6.60;1.00
13256;DHT22;37913;48.370;10.930;2022-12-29T04:25:50;6.60;1.00
13256;DHT22;37913;48.370;10.930;2022-12-29T04:28:17;6.60;1.00
13256;DHT22;37913;48.370;10.930;2022-12-29T04:30:44;6.60;1.00
13256;DHT22;37913;48.370;10.930;2022-12-29T04:33:12;6.70;1.00
13256;DHT22;37913;48.370;10.930;2022-12-29T04:35:39;6.80;1.00
13256;DHT22;37913;48.370;10.930;2022-12-29T04:38:06;6.80;1.00
13256;DHT22;37913;48.370;10.930;2022-12-29T04:40:34;6.80;1.00
13256;DHT22;37913;48.370;10.930;2022-12-29T04:43:01;6.90;1.00
13256;DHT22;37913;48.370;10.930;2022-12-29T04:45:28;6.90;1.00
13256;DHT22;37913;48.370;10.930;2022-12-29T04:47:55;6.90;1.00
13256;DHT22;37913;48.370;10.930;2022-12-29T04:50:22;6.90;1.00
13256;DHT22;37913;48.370;10.930;2022-12-29T04:52:49;7.00;1.00
13256;DHT22;37913;48.370;10.930;2022-12-29T04:55:16;7.00;1.00
13256;DHT22;37913;48.370;10.930;2022-12-29T04:57:44;7.00;1.00
13256;DHT22;37913;48.370;10.930;2022-12-29T05:00:12;7.10;1.00
13256;DHT22;37913;48.370;10.930;2022-12-29T05:02:40;7.10;1.00
13256;DHT22;37913;48.370;10.930;2022-12-29T05:05:07;7.20;1.00
13256;DHT22;37913;48.370;10.930;2022-12-29T05:07:34;7.20;1.00
13256;DHT22;37913;48.370;10.930;2022-12-29T05:10:01;7.20;1.00
13256;DHT22;37913;48.370;10.930;2022-12-29T05:12:29;7.30;1.00
13256;DHT22;37913;48.370;10.930;2022-12-29T05:14:58;7.40;1.00
13256;DHT22;37913;48.370;10.930;2022-12-29T05:17:25;7.50;1.00
13256;DHT22;37913;48.370;10.930;2022-12-29T05:19:52;7.50;1.00
13256;DHT22;37913;48.370;10.930;2022-12-29T05:22:19;7.60;1.00
13256;DHT22;37913;48.370;10.930;2022-12-29T05:24:46;7.70;1.00
13256;DHT22;37913;48.370;10.930;2022-12-29T05:27:13;7.70;1.00
13256;DHT22;37913;48.370;10.930;2022-12-29T05:29:40;7.70;1.00
13256;DHT22;37913;48.370;10.930;2022-12-29T05:32:08;7.70;1.00
13256;DHT22;37913;48.370;10.930;2022-12-29T05:34:35;7.70;1.00
13256;DHT22;37913;48.370;10.930;2022-12-29T05:37:02;7.80;1.00
13256;DHT22;37913;48.370;10.930;2022-12-29T05:39:29;7.90;1.00
13256;DHT22;37913;48.370;10.930;2022-12-29T05:41:56;8.00;1.00
13256;DHT22;37913;48.370;10.930;2022-12-29T05:44:23;8.10;1.00
13256;DHT22;37913;48.370;10.930;2022-12-29T05:46:50;8.00;1.00
13256;DHT22;37913;48.370;10.930;2022-12-29T05:49:18;8.00;1.00
13256;DHT22;37913;48.370;10.930;2022-12-29T05:51:45;8.10;99.90
13256;DHT22;37913;48.370;10.930;2022-12-29T05:54:12;8.00;99.90
13256;DHT22;37913;48.370;10.930;2022-12-29T05:56:39;8.20;99.90
13256;DHT22;37913;48.370;10.930;2022-12-29T05:59:06;8.20;99.90
13256;DHT22;37913;48.370;10.930;2022-12-29T06:01:33;8.20;99.90
13256;DHT22;37913;48.370;10.930;2022-12-29T06:04:00;8.20;99.90
13256;DHT22;37913;48.370;10.930;2022-12-29T06:06:28;8.10;99.90
13256;DHT22;37913;48.370;10.930;2022-12-29T06:08:55;8.20;99.90
13256;DHT22;37913;48.370;10.930;2022-12-29T06:11:22;8.20;99.90
13256;DHT22;37913;48.370;10.930;2022-12-29T06:13:49;8.20;1.00
13256;DHT22;37913;48.370;10.930;2022-12-29T06:16:16;8.40;99.90
13256;DHT22;37913;48.370;10.930;2022-12-29T06:18:42;8.80;99.90
13256;DHT22;37913;48.370;10.930;2022-12-29T06:21:09;8.90;1.00
13256;DHT22;37913;48.370;10.930;2022-12-29T06:23:38;8.70;99.90
13256;DHT22;37913;48.370;10.930;2022-12-29T06:26:04;8.90;99.90
13256;DHT22;37913;48.370;10.930;2022-12-29T06:28:31;9.00;99.90
13256;DHT22;37913;48.370;10.930;2022-12-29T06:30:58;9.00;99.90
13256;DHT22;37913;48.370;10.930;2022-12-29T06:33:27;9.00;99.90
13256;DHT22;37913;48.370;10.930;2022-12-29T06:35:54;8.90;99.90
13256;DHT22;37913;48.370;10.930;2022-12-29T06:38:21;9.00;99.90
13256;DHT22;37913;48.370;10.930;2022-12-29T06:40:49;8.90;99.90
13256;DHT22;37913;48.370;10.930;2022-12-29T06:43:16;8.80;99.90
13256;DHT22;37913;48.370;10.930;2022-12-29T06:45:43;8.80;99.90
13256;DHT22;37913;48.370;10.930;2022-12-29T06:48:10;8.80;99.90
13256;DHT22;37913;48.370;10.930;2022-12-29T06:50:37;8.70;99.90
13256;DHT22;37913;48.370;10.930;2022-12-29T06:53:04;8.80;99.90
13256;DHT22;37913;48.370;10.930;2022-12-29T06:55:31;8.70;99.90
13256;DHT22;37913;48.370;10.930;2022-12-29T06:57:59;8.50;99.90
13256;DHT22;37913;48.370;10.930;2022-12-29T07:00:26;8.60;99.90
13256;DHT22;37913;48.370;10.930;2022-12-29T07:02:55;8.50;99.90
13256;DHT22;37913;48.370;10.930;2022-12-29T07:05:23;9.90;99.90
13256;DHT22;37913;48.370;10.930;2022-12-29T07:07:50;8.60;99.90
13256;DHT22;37913;48.370;10.930;2022-12-29T07:10:17;8.70;99.90
13256;DHT22;37913;48.370;10.930;2022-12-29T07:12:44;8.60;99.90
13256;DHT22;37913;48.370;10.930;2022-12-29T07:15:12;8.70;1.00
13256;DHT22;37913;48.370;10.930;2022-12-29T07:17:39;8.90;99.90
13256;DHT22;37913;48.370;10.930;2022-12-29T07:20:07;9.00;99.90
13256;DHT22;37913;48.370;10.930;2022-12-29T07:22:35;9.20;99.90
13256;DHT22;37913;48.370;10.930;2022-12-29T07:25:02;9.20;99.90
13256;DHT22;37913;48.370;10.930;2022-12-29T07:27:29;9.20;99.90
13256;DHT22;37913;48.370;10.930;2022-12-29T07:29:56;9.20;99.90
13256;DHT22;37913;48.370;10.930;2022-12-29T07:32:24;9.30;99.90
13256;DHT22;37913;48.370;10.930;2022-12-29T07:34:51;9.40;99.90
13256;DHT22;37913;48.370;10.930;2022-12-29T07:37:18;9.50;99.90
13256;DHT22;37913;48.370;10.930;2022-12-29T07:39:45;9.70;99.90
13256;DHT22;37913;48.370;10.930;2022-12-29T07:42:12;9.80;1.00
13256;DHT22;37913;48.370;10.930;2022-12-29T07:44:39;9.80;1.00
13256;DHT22;37913;48.370;10.930;2022-12-29T07:47:06;9.80;99.90
13256;DHT22;37913;48.370;10.930;2022-12-29T07:49:34;9.90;99.90
13256;DHT22;37913;48.370;10.930;2022-12-29T07:52:01;10.20;1.00
13256;DHT22;37913;48.370;10.930;2022-12-29T07:54:28;10.50;99.90
13256;DHT22;37913;48.370;10.930;2022-12-29T07:56:55;10.60;99.90
13256;DHT22;37913;48.370;10.930;2022-12-29T07:59:23;10.50;99.90
13256;DHT22;37913;48.370;10.930;2022-12-29T08:01:49;10.70;99.90
13256;DHT22;37913;48.370;10.930;2022-12-29T08:04:16;10.80;99.90
13256;DHT22;37913;48.370;10.930;2022-12-29T08:06:45;11.10;99.90
13256;DHT22;37913;48.370;10.930;2022-12-29T08:09:12;11.40;99.90
13256;DHT22;37913;48.370;10.930;2022-12-29T08:11:39;11.40;99.90
13256;DHT22;37913;48.370;10.930;2022-12-29T08:14:06;11.10;99.90
13256;DHT22;37913;48.370;10.930;2022-12-29T08:16:34;11.10;99.90
13256;DHT22;37913;48.370;10.930;2022-12-29T08:19:01;11.40;99.90
13256;DHT22;37913;48.370;10.930;2022-12-29T08:21:29;11.70;99.90
13256;DHT22;37913;48.370;10.930;2022-12-29T08:23:57;12.10;99.90
13256;DHT22;37913;48.370;10.930;2022-12-29T08:26:24;12.40;99.90
13256;DHT22;37913;48.370;10.930;2022-12-29T08:28:52;12.70;99.90
13256;DHT22;37913;48.370;10.930;2022-12-29T08:31:19;12.80;99.90
13256;DHT22;37913;48.370;10.930;2022-12-29T08:33:46;12.40;99.90
13256;DHT22;37913;48.370;10.930;2022-12-29T08:36:13;12.20;99.90
13256;DHT22;37913;48.370;10.930;2022-12-29T08:38:40;12.10;99.90
13256;DHT22;37913;48.370;10.930;2022-12-29T08:41:09;11.90;99.90
13256;DHT22;37913;48.370;10.930;2022-12-29T08:43:36;12.20;99.90
13256;DHT22;37913;48.370;10.930;2022-12-29T08:46:03;12.80;99.90
13256;DHT22;37913;48.370;10.930;2022-12-29T08:48:30;13.30;99.90
13256;DHT22;37913;48.370;10.930;2022-12-29T08:50:57;13.60;99.90
13256;DHT22;37913;48.370;10.930;2022-12-29T08:53:23;12.60;99.90
13256;DHT22;37913;48.370;10.930;2022-12-29T08:55:56;12.80;99.90
13256;DHT22;37913;48.370;10.930;2022-12-29T08:58:24;12.60;99.90
13256;DHT22;37913;48.370;10.930;2022-12-29T09:00:52;12.50;99.90
13256;DHT22;37913;48.370;10.930;2022-12-29T09:03:20;12.40;99.90
13256;DHT22;37913;48.370;10.930;2022-12-29T09:05:48;12.10;99.90
13256;DHT22;37913;48.370;10.930;2022-12-29T09:08:15;12.00;99.90
13256;DHT22;37913;48.370;10.930;2022-12-29T09:10:42;12.00;99.90
13256;DHT22;37913;48.370;10.930;2022-12-29T09:13:09;12.00;99.90
13256;DHT22;37913;48.370;10.930;2022-12-29T09:15:37;11.70;99.90
13256;DHT22;37913;48.370;10.930;2022-12-29T09:18:05;11.60;99.90
13256;DHT22;37913;48.370;10.930;2022-12-29T09:20:32;11.50;99.90
13256;DHT22;37913;48.370;10.930;2022-12-29T09:22:59;11.60;99.90
13256;DHT22;37913;48.370;10.930;2022-12-29T09:25:26;11.50;99.90
13256;DHT22;37913;48.370;10.930;2022-12-29T09:27:53;11.50;99.90
13256;DHT22;37913;48.370;10.930;2022-12-29T09:30:22;11.40;99.90
13256;DHT22;37913;48.370;10.930;2022-12-29T09:32:50;11.50;99.90
13256;DHT22;37913;48.370;10.930;2022-12-29T09:35:17;11.40;99.90
13256;DHT22;37913;48.370;10.930;2022-12-29T09:37:44;11.40;99.90
13256;DHT22;37913;48.370;10.930;2022-12-29T09:40:23;11.40;99.90
13256;DHT22;37913;48.370;10.930;2022-12-29T09:43:01;11.50;99.90
13256;DHT22;37913;48.370;10.930;2022-12-29T09:45:34;11.40;99.90
13256;DHT22;37913;48.370;10.930;2022-12-29T09:48:10;11.50;99.90
13256;DHT22;37913;48.370;10.930;2022-12-29T09:50:39;11.80;99.90
13256;DHT22;37913;48.370;10.930;2022-12-29T09:53:13;11.60;99.90
13256;DHT22;37913;48.370;10.930;2022-12-29T09:55:44;11.80;99.90
13256;DHT22;37913;48.370;10.930;2022-12-29T09:58:16;11.70;99.90
13256;DHT22;37913;48.370;10.930;2022-12-29T10:00:50;11.90;99.90
13256;DHT22;37913;48.370;10.930;2022-12-29T10:03:21;12.20;99.90
13256;DHT22;37913;48.370;10.930;2022-12-29T10:05:51;12.80;99.90
13256;DHT22;37913;48.370;10.930;2022-12-29T10:08:29;12.60;99.90
13256;DHT22;37913;48.370;10.930;2022-12-29T10:11:04;12.60;99.90
13256;DHT22;37913;48.370;10.930;2022-12-29T10:13:43;12.50;99.90
13256;DHT22;37913;48.370;10.930;2022-12-29T10:16:18;12.70;99.90
13256;DHT22;37913;48.370;10.930;2022-12-29T10:19:19;12.50;99.90
13256;DHT22;37913;48.370;10.930;2022-12-29T10:21:59;12.40;99.90
13256;DHT22;37913;48.370;10.930;2022-12-29T10:24:27;12.40;99.90
13256;DHT22;37913;48.370;10.930;2022-12-29T10:26:56;12.60;99.90
13256;DHT22;37913;48.370;10.930;2022-12-29T10:29:26;12.40;99.90
13256;DHT22;37913;48.370;10.930;2022-12-29T10:31:59;12.50;99.90
13256;DHT22;37913;48.370;10.930;2022-12-29T10:34:31;12.50;99.90
13256;DHT22;37913;48.370;10.930;2022-12-29T10:37:03;12.40;99.90
13256;DHT22;37913;48.370;10.930;2022-12-29T10:39:36;12.50;99.90
13256;DHT22;37913;48.370;10.930;2022-12-29T10:42:11;12.60;99.90
13256;DHT22;37913;48.370;10.930;2022-12-29T10:44:40;12.70;99.90
13256;DHT22;37913;48.370;10.930;2022-12-29T10:47:11;12.90;99.90
13256;DHT22;37913;48.370;10.930;2022-12-29T10:49:42;13.00;99.90
13256;DHT22;37913;48.370;10.930;2022-12-29T10:52:10;13.40;99.90
13256;DHT22;37913;48.370;10.930;2022-12-29T10:54:44;13.40;99.90
13256;DHT22;37913;48.370;10.930;2022-12-29T10:57:16;13.60;99.90
13256;DHT22;37913;48.370;10.930;2022-12-29T10:59:45;13.60;99.90
13256;DHT22;37913;48.370;10.930;2022-12-29T11:02:32;13.70;99.90
13256;DHT22;37913;48.370;10.930;2022-12-29T11:05:10;13.90;99.90
13256;DHT22;37913;48.370;10.930;2022-12-29T11:07:41;13.90;99.90
13256;DHT22;37913;48.370;10.930;2022-12-29T11:10:20;14.60;99.90
13256;DHT22;37913;48.370;10.930;2022-12-29T11:12:57;15.40;99.90
13256;DHT22;37913;48.370;10.930;2022-12-29T11:15:25;14.70;99.90
13256;DHT22;37913;48.370;10.930;2022-12-29T11:17:56;15.40;99.90
13256;DHT22;37913;48.370;10.930;2022-12-29T11:20:34;15.80;99.90
13256;DHT22;37913;48.370;10.930;2022-12-29T11:23:04;16.10;99.90
13256;DHT22;37913;48.370;10.930;2022-12-29T11:25:31;17.70;99.90
13256;DHT22;37913;48.370;10.930;2022-12-29T11:28:01;18.70;99.90
13256;DHT22;37913;48.370;10.930;2022-12-29T11:30:32;16.70;99.90
13256;DHT22;37913;48.370;10.930;2022-12-29T11:33:02;16.40;99.90
13256;DHT22;37913;48.370;10.930;2022-12-29T11:35:34;18.50;99.90
13256;DHT22;37913;48.370;10.930;2022-12-29T11:38:02;19.00;99.90
13256;DHT22;37913;48.370;10.930;2022-12-29T11:40:30;19.70;99.90
13256;DHT22;37913;48.370;10.930;2022-12-29T11:43:01;19.10;99.90
13256;DHT22;37913;48.370;10.930;2022-12-29T11:45:31;18.90;99.90
13256;DHT22;37913;48.370;10.930;2022-12-29T11:48:05;21.10;99.90
13256;DHT22;37913;48.370;10.930;2022-12-29T11:50:37;22.00;99.90
13256;DHT22;37913;48.370;10.930;2022-12-29T11:53:07;20.50;99.90
13256;DHT22;37913;48.370;10.930;2022-12-29T11:55:41;20.80;99.90
13256;DHT22;37913;48.370;10.930;2022-12-29T11:58:17;20.20;99.90
13256;DHT22;37913;48.370;10.930;2022-12-29T12:00:45;20.90;99.90
13256;DHT22;37913;48.370;10.930;2022-12-29T12:03:16;20.10;99.90
13256;DHT22;37913;48.370;10.930;2022-12-29T12:05:47;19.00;99.90
13256;DHT22;37913;48.370;10.930;2022-12-29T12:08:21;17.70;99.90
13256;DHT22;37913;48.370;10.930;2022-12-29T12:10:54;17.00;99.90
13256;DHT22;37913;48.370;10.930;2022-12-29T12:13:29;17.20;99.90
13256;DHT22;37913;48.370;10.930;2022-12-29T12:16:02;16.00;99.90
13256;DHT22;37913;48.370;10.930;2022-12-29T12:18:48;15.80;99.90
13256;DHT22;37913;48.370;10.930;2022-12-29T12:21:25;15.40;99.90
13256;DHT22;37913;48.370;10.930;2022-12-29T12:24:08;15.90;99.90
13256;DHT22;37913;48.370;10.930;2022-12-29T12:26:52;17.80;99.90
13256;DHT22;37913;48.370;10.930;2022-12-29T12:29:24;16.90;99.90
13256;DHT22;37913;48.370;10.930;2022-12-29T12:31:56;15.30;99.90
13256;DHT22;37913;48.370;10.930;2022-12-29T12:34:27;14.70;99.90
13256;DHT22;37913;48.370;10.930;2022-12-29T12:37:15;14.60;99.90
13256;DHT22;37913;48.370;10.930;2022-12-29T12:39:55;14.30;99.90
13256;DHT22;37913;48.370;10.930;2022-12-29T12:42:34;14.20;99.90
13256;DHT22;37913;48.370;10.930;2022-12-29T12:45:32;14.00;99.90
13256;DHT22;37913;48.370;10.930;2022-12-29T12:48:10;13.70;99.90
13256;DHT22;37913;48.370;10.930;2022-12-29T12:50:47;13.70;99.90
13256;DHT22;37913;48.370;10.930;2022-12-29T12:53:29;15.10;99.90
13256;DHT22;37913;48.370;10.930;2022-12-29T12:58:59;16.60;99.90
13256;DHT22;37913;48.370;10.930;2022-12-29T13:01:38;17.30;99.90
13256;DHT22;37913;48.370;10.930;2022-12-29T13:04:37;16.60;99.90
13256;DHT22;37913;48.370;10.930;2022-12-29T13:07:14;15.50;99.90
13256;DHT22;37913;48.370;10.930;2022-12-29T13:09:52;14.80;99.90
13256;DHT22;37913;48.370;10.930;2022-12-29T13:12:34;14.40;99.90
13256;DHT22;37913;48.370;10.930;2022-12-29T13:15:14;14.40;99.90
13256;DHT22;37913;48.370;10.930;2022-12-29T13:17:48;14.40;99.90
13256;DHT22;37913;48.370;10.930;2022-12-29T13:20:27;14.40;99.90
13256;DHT22;37913;48.370;10.930;2022-12-29T13:22:59;14.60;99.90
13256;DHT22;37913;48.370;10.930;2022-12-29T13:25:37;14.40;99.90
13256;DHT22;37913;48.370;10.930;2022-12-29T13:28:10;14.20;99.90
13256;DHT22;37913;48.370;10.930;2022-12-29T13:30:43;13.90;99.90
13256;DHT22;37913;48.370;10.930;2022-12-29T13:33:19;13.70;99.90
13256;DHT22;37913;48.370;10.930;2022-12-29T13:35:55;13.70;99.90
13256;DHT22;37913;48.370;10.930;2022-12-29T13:38:29;13.60;99.90
13256;DHT22;37913;48.370;10.930;2022-12-29T13:41:01;13.40;99.90
13256;DHT22;37913;48.370;10.930;2022-12-29T13:43:31;13.00;99.90
13256;DHT22;37913;48.370;10.930;2022-12-29T13:46:05;13.00;99.90
13256;DHT22;37913;48.370;10.930;2022-12-29T13:48:39;12.90;99.90
13256;DHT22;37913;48.370;10.930;2022-12-29T13:51:08;12.90;99.90
13256;DHT22;37913;48.370;10.930;2022-12-29T13:53:42;12.80;99.90
13256;DHT22;37913;48.370;10.930;2022-12-29T13:56:19;12.80;99.90
13256;DHT22;37913;48.370;10.930;2022-12-29T13:58:54;12.70;99.90
13256;DHT22;37913;48.370;10.930;2022-12-29T14:01:28;12.60;99.90
13256;DHT22;37913;48.370;10.930;2022-12-29T14:03:57;12.60;99.90
13256;DHT22;37913;48.370;10.930;2022-12-29T14:06:26;12.50;99.90
13256;DHT22;37913;48.370;10.930;2022-12-29T14:08:55;12.40;99.90
13256;DHT22;37913;48.370;10.930;2022-12-29T14:11:31;12.40;99.90
13256;DHT22;37913;48.370;10.930;2022-12-29T14:13:59;12.30;99.90
13256;DHT22;37913;48.370;10.930;2022-12-29T14:16:37;12.30;99.90
13256;DHT22;37913;48.370;10.930;2022-12-29T14:19:09;12.30;99.90
13256;DHT22;37913;48.370;10.930;2022-12-29T14:21:37;12.20;99.90
13256;DHT22;37913;48.370;10.930;2022-12-29T14:24:27;12.20;99.90
13256;DHT22;37913;48.370;10.930;2022-12-29T14:26:56;12.10;99.90
13256;DHT22;37913;48.370;10.930;2022-12-29T14:29:42;12.10;99.90
13256;DHT22;37913;48.370;10.930;2022-12-29T14:32:36;12.00;99.90
13256;DHT22;37913;48.370;10.930;2022-12-29T14:38:19;12.00;99.90
13256;DHT22;37913;48.370;10.930;2022-12-29T14:40:48;11.90;99.90
13256;DHT22;37913;48.370;10.930;2022-12-29T14:43:22;12.00;99.90
13256;DHT22;37913;48.370;10.930;2022-12-29T14:46:01;11.90;99.90
13256;DHT22;37913;48.370;10.930;2022-12-29T14:48:35;11.90;99.90
13256;DHT22;37913;48.370;10.930;2022-12-29T14:51:17;11.80;99.90
13256;DHT22;37913;48.370;10.930;2022-12-29T14:53:47;11.70;99.90
13256;DHT22;37913;48.370;10.930;2022-12-29T14:56:16;11.60;99.90
13256;DHT22;37913;48.370;10.930;2022-12-29T14:58:48;11.60;99.90
13256;DHT22;37913;48.370;10.930;2022-12-29T15:01:26;11.50;99.90
13256;DHT22;37913;48.370;10.930;2022-12-29T15:03:56;11.50;99.90
13256;DHT22;37913;48.370;10.930;2022-12-29T15:06:25;11.50;99.90
13256;DHT22;37913;48.370;10.930;2022-12-29T15:09:00;11.40;99.90
13256;DHT22;37913;48.370;10.930;2022-12-29T15:11:42;11.40;99.90
13256;DHT22;37913;48.370;10.930;2022-12-29T15:14:34;11.30;99.90
13256;DHT22;37913;48.370;10.930;2022-12-29T15:17:08;11.30;99.90
13256;DHT22;37913;48.370;10.930;2022-12-29T15:19:36;11.20;99.90
13256;DHT22;37913;48.370;10.930;2022-12-29T15:22:03;11.10;99.90
13256;DHT22;37913;48.370;10.930;2022-12-29T15:24:30;11.10;99.90
13256;DHT22;37913;48.370;10.930;2022-12-29T15:26:57;11.10;99.90
13256;DHT22;37913;48.370;10.930;2022-12-29T15:29:37;11.10;99.90
13256;DHT22;37913;48.370;10.930;2022-12-29T15:32:18;10.90;99.90
13256;DHT22;37913;48.370;10.930;2022-12-29T15:34:47;10.80;99.90
13256;DHT22;37913;48.370;10.930;2022-12-29T15:37:18;10.80;99.90
13256;DHT22;37913;48.370;10.930;2022-12-29T15:39:46;10.90;99.90
13256;DHT22;37913;48.370;10.930;2022-12-29T15:45:08;10.80;99.90
13256;DHT22;37913;48.370;10.930;2022-12-29T15:47:37;10.70;99.90
13256;DHT22;37913;48.370;10.930;2022-12-29T15:50:08;10.70;99.90
13256;DHT22;37913;48.370;10.930;2022-12-29T15:52:39;10.60;99.90
13256;DHT22;37913;48.370;10.930;2022-12-29T15:55:17;10.60;99.90
13256;DHT22;37913;48.370;10.930;2022-12-29T15:57:44;10.60;99.90
13256;DHT22;37913;48.370;10.930;2022-12-29T16:00:23;10.60;99.90
13256;DHT22;37913;48.370;10.930;2022-12-29T16:02:53;10.60;99.90
13256;DHT22;37913;48.370;10.930;2022-12-29T16:05:21;10.60;99.90
13256;DHT22;37913;48.370;10.930;2022-12-29T16:07:55;10.50;99.90
13256;DHT22;37913;48.370;10.930;2022-12-29T16:10:26;10.50;99.90
13256;DHT22;37913;48.370;10.930;2022-12-29T16:13:02;10.60;99.90
13256;DHT22;37913;48.370;10.930;2022-12-29T16:15:31;10.60;99.90